createdAt,value
2018-08-03T00:01:50.500Z,24.24
2018-08-03T00:04:18.515Z,24.23
2018-08-03T00:06:46.556Z,24.20
2018-08-03T00:09:16.132Z,24.16
2018-08-03T00:11:44.139Z,24.15
2018-08-03T00:14:12.172Z,24.12
2018-08-03T00:16:40.204Z,24.08
2018-08-03T00:19:08.230Z,24.08
2018-08-03T00:21:36.245Z,24.07
2018-08-03T00:24:05.021Z,24.07
2018-08-03T00:26:33.055Z,24.02
2018-08-03T00:29:01.218Z,23.95
2018-08-03T00:31:29.243Z,23.97
2018-08-03T00:33:57.266Z,23.92
2018-08-03T00:36:25.287Z,23.90
2018-08-03T00:38:53.333Z,23.89
2018-08-03T00:41:21.345Z,23.88
2018-08-03T00:43:49.367Z,23.87
2018-08-03T00:46:17.392Z,23.82
2018-08-03T00:48:45.408Z,23.81
2018-08-03T00:51:13.430Z,23.79
2018-08-03T00:53:41.452Z,23.78
2018-08-03T00:56:09.468Z,23.75
2018-08-03T00:58:37.493Z,23.73
2018-08-03T01:01:05.511Z,23.71
2018-08-03T01:03:33.528Z,23.65
2018-08-03T01:06:01.535Z,23.63
2018-08-03T01:08:29.557Z,23.63
2018-08-03T01:10:57.572Z,23.64
2018-08-03T01:13:25.584Z,23.61
2018-08-03T01:15:53.608Z,23.61
2018-08-03T01:18:21.629Z,23.58
2018-08-03T01:20:49.652Z,23.56
2018-08-03T01:23:17.680Z,23.56
2018-08-03T01:25:45.697Z,23.50
2018-08-03T01:28:13.704Z,23.46
2018-08-03T01:30:41.734Z,23.44
2018-08-03T01:33:09.766Z,23.43
2018-08-03T01:35:37.791Z,23.41
2018-08-03T01:38:05.921Z,23.40
2018-08-03T01:40:33.941Z,23.36
2018-08-03T01:43:01.964Z,23.32
2018-08-03T01:45:29.981Z,23.27
2018-08-03T01:47:57.999Z,23.23
2018-08-03T01:50:26.056Z,23.18
2018-08-03T01:52:54.105Z,23.17
2018-08-03T01:55:22.152Z,23.16
2018-08-03T01:57:50.349Z,23.15
2018-08-03T02:00:18.509Z,23.12
2018-08-03T02:02:46.555Z,23.05
2018-08-03T02:05:14.576Z,23.02
2018-08-03T02:07:42.728Z,23.01
2018-08-03T02:10:10.925Z,23.00
2018-08-03T02:12:39.004Z,22.99
2018-08-03T02:15:07.389Z,22.94
2018-08-03T02:17:35.481Z,22.90
2018-08-03T02:20:03.547Z,22.90
2018-08-03T02:22:31.565Z,22.84
2018-08-03T02:24:59.600Z,22.78
2018-08-03T02:27:27.627Z,22.75
2018-08-03T02:29:55.648Z,22.71
2018-08-03T02:32:23.672Z,22.71
2018-08-03T02:34:51.689Z,22.62
2018-08-03T02:37:19.701Z,22.58
2018-08-03T02:39:47.718Z,22.55
2018-08-03T02:42:15.888Z,22.56
2018-08-03T02:44:43.967Z,22.56
2018-08-03T02:47:11.990Z,22.56
2018-08-03T02:49:40.035Z,22.54
2018-08-03T02:52:08.180Z,22.53
2018-08-03T02:54:36.197Z,22.51
2018-08-03T02:57:05.124Z,22.45
2018-08-03T02:59:33.135Z,22.45
2018-08-03T03:02:01.161Z,22.41
2018-08-03T03:04:29.177Z,22.40
2018-08-03T03:06:57.212Z,22.39
2018-08-03T03:09:25.234Z,22.39
2018-08-03T03:11:53.260Z,22.40
2018-08-03T03:14:21.275Z,22.39
2018-08-03T03:16:49.317Z,22.37
2018-08-03T03:19:17.387Z,22.36
2018-08-03T03:21:45.363Z,22.34
2018-08-03T03:24:13.385Z,22.30
2018-08-03T03:26:41.402Z,22.27
2018-08-03T03:29:09.430Z,22.21
2018-08-03T03:31:37.457Z,22.23
2018-08-03T03:34:05.480Z,22.23
2018-08-03T03:36:33.556Z,22.20
2018-08-03T03:39:01.636Z,22.17
2018-08-03T03:41:29.644Z,22.17
2018-08-03T03:43:57.672Z,22.15
2018-08-03T03:46:25.692Z,22.11
2018-08-03T03:48:53.720Z,22.04
2018-08-03T03:51:21.729Z,22.02
2018-08-03T03:53:49.760Z,22.00
2018-08-03T03:56:17.787Z,22.00
2018-08-03T03:58:45.804Z,21.96
2018-08-03T04:01:13.815Z,21.95
2018-08-03T04:03:41.881Z,21.95
2018-08-03T04:06:09.863Z,21.92
2018-08-03T04:08:37.904Z,21.89
2018-08-03T04:11:06.044Z,21.83
2018-08-03T04:13:33.952Z,21.79
2018-08-03T04:16:01.980Z,21.78
2018-08-03T04:18:30.000Z,21.72
2018-08-03T04:20:58.021Z,21.70
2018-08-03T04:23:26.040Z,21.68
2018-08-03T04:25:54.072Z,21.68
2018-08-03T04:28:22.100Z,21.65
2018-08-03T04:30:50.152Z,21.58
2018-08-03T04:33:18.224Z,21.52
2018-08-03T04:35:46.409Z,21.52
2018-08-03T04:38:14.459Z,21.54
2018-08-03T04:40:42.469Z,21.58
2018-08-03T04:43:10.493Z,21.61
2018-08-03T04:45:38.532Z,21.62
2018-08-03T04:48:06.612Z,21.62
2018-08-03T04:50:34.652Z,21.63
2018-08-03T04:53:02.686Z,21.69
2018-08-03T04:55:30.703Z,21.71
2018-08-03T04:57:58.727Z,21.77
2018-08-03T05:00:26.744Z,21.79
2018-08-03T05:02:54.777Z,21.83
2018-08-03T05:05:22.793Z,21.85
2018-08-03T05:07:50.908Z,21.94
2018-08-03T05:10:18.925Z,22.02
2018-08-03T05:12:46.954Z,22.02
2018-08-03T05:15:14.972Z,22.03
2018-08-03T05:17:43.008Z,22.05
2018-08-03T05:20:11.049Z,22.04
2018-08-03T05:22:39.082Z,22.03
2018-08-03T05:25:07.216Z,22.04
2018-08-03T05:27:35.258Z,22.05
2018-08-03T05:30:03.295Z,22.08
2018-08-03T05:32:31.374Z,22.10
2018-08-03T05:34:59.441Z,22.10
2018-08-03T05:37:27.469Z,22.10
2018-08-03T05:39:55.629Z,22.10
2018-08-03T05:42:23.675Z,22.09
2018-08-03T05:44:51.678Z,22.06
2018-08-03T05:47:19.704Z,22.03
2018-08-03T05:49:47.757Z,22.03
2018-08-03T05:52:22.104Z,22.02
2018-08-03T05:54:50.076Z,22.05
2018-08-03T05:57:18.124Z,22.11
2018-08-03T05:59:46.297Z,22.12
2018-08-03T06:02:14.308Z,22.19
2018-08-03T06:04:42.329Z,22.22
2018-08-03T06:07:10.346Z,22.23
2018-08-03T06:09:38.410Z,22.32
2018-08-03T06:12:06.714Z,22.38
2018-08-03T06:14:34.736Z,22.44
2018-08-03T06:17:02.766Z,22.53
2018-08-03T06:19:31.232Z,22.66
2018-08-03T06:21:59.256Z,22.79
2018-08-03T06:24:27.276Z,22.92
2018-08-03T06:26:55.299Z,23.02
2018-08-03T06:29:23.347Z,23.14
2018-08-03T06:31:51.369Z,23.30
2018-08-03T06:34:19.405Z,23.42
2018-08-03T06:36:47.417Z,23.59
2018-08-03T06:39:15.450Z,23.71
2018-08-03T06:41:43.872Z,23.86
2018-08-03T06:44:11.882Z,24.03
2018-08-03T06:46:39.908Z,24.18
2018-08-03T06:49:07.932Z,24.33
2018-08-03T06:51:35.952Z,24.50
2018-08-03T06:54:04.951Z,24.68
2018-08-03T06:56:33.184Z,24.88
2018-08-03T06:59:01.337Z,25.03
2018-08-03T07:01:29.337Z,25.20
2018-08-03T07:03:57.349Z,25.52
2018-08-03T07:06:25.373Z,25.85
2018-08-03T07:08:53.405Z,26.13
2018-08-03T07:11:21.421Z,26.25
2018-08-03T07:13:49.447Z,26.30
2018-08-03T07:16:17.460Z,26.40
2018-08-03T07:18:45.498Z,26.45
2018-08-03T07:21:13.757Z,26.62
2018-08-03T07:23:41.818Z,26.84
2018-08-03T07:26:09.852Z,27.11
2018-08-03T07:28:38.136Z,27.28
2018-08-03T07:31:06.160Z,27.45
2018-08-03T07:33:34.212Z,27.64
2018-08-03T07:36:02.223Z,27.86
2018-08-03T07:38:30.254Z,27.89
2018-08-03T07:40:58.433Z,27.99
2018-08-03T07:43:26.506Z,28.15
2018-08-03T07:45:54.482Z,28.35
2018-08-03T07:48:22.502Z,28.48
2018-08-03T07:50:50.509Z,28.69
2018-08-03T07:53:18.517Z,28.93
2018-08-03T07:55:46.534Z,29.16
2018-08-03T07:58:14.548Z,29.43
2018-08-03T08:00:42.561Z,29.68
2018-08-03T08:03:10.628Z,29.80
2018-08-03T08:05:38.634Z,29.87
2018-08-03T08:08:06.664Z,29.98
2018-08-03T08:10:34.688Z,30.16
2018-08-03T08:13:02.708Z,30.17
2018-08-03T08:15:30.733Z,30.35
2018-08-03T08:17:58.744Z,30.54
2018-08-03T08:20:26.756Z,30.59
2018-08-03T08:22:54.788Z,30.73
2018-08-03T08:25:22.804Z,30.84
2018-08-03T08:27:50.948Z,31.08
2018-08-03T08:30:18.993Z,31.28
2018-08-03T08:32:47.004Z,31.29
2018-08-03T08:35:15.089Z,31.29
2018-08-03T08:37:43.246Z,31.37
2018-08-03T08:40:11.273Z,31.48
2018-08-03T08:42:39.293Z,31.70
2018-08-03T08:45:13.977Z,31.97
2018-08-03T08:47:41.984Z,32.12
2018-08-03T08:50:10.417Z,32.25
2018-08-03T08:52:38.478Z,32.40
2018-08-03T08:55:06.446Z,32.65
2018-08-03T08:57:34.570Z,32.83
2018-08-03T09:00:02.584Z,33.06
2018-08-03T09:02:30.600Z,33.32
2018-08-03T09:04:58.772Z,33.55
2018-08-03T09:07:26.827Z,33.71
2018-08-03T09:09:54.841Z,33.94
2018-08-03T09:12:22.872Z,34.00
2018-08-03T09:14:50.900Z,33.95
2018-08-03T09:17:18.919Z,34.07
2018-08-03T09:19:47.362Z,34.15
2018-08-03T09:22:15.425Z,34.26
2018-08-03T09:24:43.513Z,34.40
2018-08-03T09:27:11.772Z,34.58
2018-08-03T09:29:39.781Z,34.70
2018-08-03T09:32:07.784Z,34.70
2018-08-03T09:34:35.905Z,34.73
2018-08-03T09:37:04.849Z,34.77
2018-08-03T09:39:32.856Z,34.87
2018-08-03T09:42:00.880Z,34.91
2018-08-03T09:44:28.894Z,34.99
2018-08-03T09:46:56.908Z,35.11
2018-08-03T09:49:24.944Z,35.27
2018-08-03T09:51:52.987Z,35.34
2018-08-03T09:54:21.014Z,35.22
2018-08-03T09:56:48.997Z,35.06
2018-08-03T09:59:17.001Z,35.05
2018-08-03T10:01:45.053Z,35.16
2018-08-03T10:04:13.024Z,35.34
2018-08-03T10:06:41.040Z,35.39
2018-08-03T10:09:09.240Z,35.32
2018-08-03T10:11:37.260Z,35.27
2018-08-03T10:14:05.267Z,35.29
2018-08-03T10:16:33.289Z,35.28
2018-08-03T10:19:01.300Z,35.42
2018-08-03T10:21:29.778Z,35.78
2018-08-03T10:23:57.792Z,36.05
2018-08-03T10:26:25.844Z,36.22
2018-08-03T10:28:54.209Z,36.24
2018-08-03T10:31:22.237Z,36.46
2018-08-03T10:33:50.277Z,36.67
2018-08-03T10:36:18.286Z,36.82
2018-08-03T10:38:46.340Z,36.84
2018-08-03T10:41:14.355Z,36.72
2018-08-03T10:43:42.377Z,36.66
2018-08-03T10:46:10.780Z,36.64
2018-08-03T10:48:38.871Z,36.51
2018-08-03T10:51:07.173Z,36.51
2018-08-03T10:53:35.180Z,36.45
2018-08-03T10:56:03.219Z,36.39
2018-08-03T10:58:31.245Z,36.20
2018-08-03T11:00:59.249Z,36.15
2018-08-03T11:03:27.268Z,36.19
2018-08-03T11:05:55.260Z,35.90
2018-08-03T11:08:23.260Z,36.04
2018-08-03T11:10:51.289Z,36.26
2018-08-03T11:13:19.287Z,36.28
2018-08-03T11:15:47.308Z,36.26
2018-08-03T11:18:15.336Z,36.30
2018-08-03T11:20:43.344Z,36.37
2018-08-03T11:23:11.344Z,36.34
2018-08-03T11:25:40.213Z,36.22
2018-08-03T11:28:08.228Z,36.24
2018-08-03T11:30:36.241Z,36.23
2018-08-03T11:33:04.553Z,36.15
2018-08-03T11:35:32.570Z,36.28
2018-08-03T11:38:00.573Z,36.37
2018-08-03T11:40:28.629Z,36.46
2018-08-03T11:42:56.660Z,36.56
2018-08-03T11:45:24.680Z,36.57
2018-08-03T11:47:52.696Z,36.60
2018-08-03T11:50:20.760Z,36.72
2018-08-03T11:52:48.776Z,36.73
2018-08-03T11:55:16.780Z,36.63
2018-08-03T11:57:44.784Z,36.62
2018-08-03T12:00:13.103Z,36.70
2018-08-03T12:02:41.120Z,36.77
2018-08-03T12:05:09.200Z,36.90
2018-08-03T12:07:37.493Z,37.04
2018-08-03T12:10:05.709Z,36.95
2018-08-03T12:12:33.769Z,37.02
2018-08-03T12:15:04.356Z,37.15
2018-08-03T12:17:32.364Z,37.07
2018-08-03T12:20:00.396Z,37.06
2018-08-03T12:22:28.503Z,37.21
2018-08-03T12:24:56.540Z,37.35
2018-08-03T12:27:24.548Z,37.48
2018-08-03T12:29:52.564Z,37.64
2018-08-03T12:32:20.724Z,37.53
2018-08-03T12:34:48.730Z,37.52
2018-08-03T12:37:16.736Z,37.29
2018-08-03T12:39:44.752Z,37.06
2018-08-03T12:42:12.792Z,36.97
2018-08-03T12:44:40.844Z,36.86
2018-08-03T12:47:08.864Z,37.06
2018-08-03T12:49:36.892Z,37.31
2018-08-03T12:52:04.918Z,37.62
2018-08-03T12:54:32.958Z,37.79
2018-08-03T12:57:00.948Z,37.85
2018-08-03T12:59:28.982Z,37.89
2018-08-03T13:01:56.976Z,37.93
2018-08-03T13:04:24.981Z,38.06
2018-08-03T13:06:52.984Z,37.92
2018-08-03T13:09:21.264Z,37.62
2018-08-03T13:11:49.272Z,37.50
2018-08-03T13:14:17.446Z,37.32
2018-08-03T13:16:45.443Z,37.37
2018-08-03T13:19:13.441Z,37.57
2018-08-03T13:21:42.344Z,37.58
2018-08-03T13:24:10.356Z,37.68
2018-08-03T13:26:38.360Z,37.72
2018-08-03T13:29:06.440Z,37.93
2018-08-03T13:31:34.478Z,38.18
2018-08-03T13:34:02.511Z,38.07
2018-08-03T13:36:31.312Z,37.88
2018-08-03T13:38:59.813Z,37.54
2018-08-03T13:41:27.844Z,37.32
2018-08-03T13:43:56.050Z,37.19
2018-08-03T13:46:24.084Z,37.16
2018-08-03T13:48:52.113Z,37.23
2018-08-03T13:51:20.432Z,37.45
2018-08-03T13:53:48.880Z,37.65
2018-08-03T13:56:17.690Z,37.67
2018-08-03T13:58:46.440Z,37.47
2018-08-03T14:01:26.091Z,37.52
2018-08-03T14:03:54.333Z,37.56
2018-08-03T14:06:22.716Z,37.50
2018-08-03T14:08:50.741Z,37.40
2018-08-03T14:11:19.348Z,37.29
2018-08-03T14:13:47.665Z,37.14
2018-08-03T14:16:15.889Z,37.09
2018-08-03T14:18:44.834Z,37.09
2018-08-03T14:21:12.888Z,37.11
2018-08-03T14:23:40.938Z,37.21
2018-08-03T14:26:08.964Z,37.24
2018-08-03T14:28:37.019Z,37.29
2018-08-03T14:31:05.040Z,37.38
2018-08-03T14:33:33.089Z,37.48
2018-08-03T14:36:01.144Z,37.58
2018-08-03T14:38:29.166Z,37.58
2018-08-03T14:40:57.194Z,37.37
2018-08-03T14:43:25.226Z,37.38
2018-08-03T14:45:53.273Z,37.52
2018-08-03T14:48:21.300Z,37.57
2018-08-03T14:50:49.416Z,37.53
2018-08-03T14:53:17.439Z,37.54
2018-08-03T14:55:45.512Z,37.47
2018-08-03T14:58:13.537Z,37.52
2018-08-03T15:00:41.577Z,37.63
2018-08-03T15:03:09.614Z,37.66
2018-08-03T15:05:37.638Z,37.45
2018-08-03T15:08:05.684Z,37.25
2018-08-03T15:10:33.693Z,37.08
2018-08-03T15:13:01.725Z,37.02
2018-08-03T15:15:29.788Z,37.11
2018-08-03T15:17:57.832Z,37.11
2018-08-03T15:20:26.207Z,37.06
2018-08-03T15:22:54.232Z,37.08
2018-08-03T15:25:22.430Z,36.92
2018-08-03T15:27:50.458Z,36.80
2018-08-03T15:30:18.492Z,36.58
2018-08-03T15:32:46.533Z,36.44
2018-08-03T15:35:14.634Z,36.45
2018-08-03T15:37:42.593Z,36.40
2018-08-03T15:40:10.716Z,36.27
2018-08-03T15:42:38.795Z,36.12
2018-08-03T15:45:07.754Z,35.98
2018-08-03T15:47:36.408Z,35.97
2018-08-03T15:50:05.055Z,35.91
2018-08-03T15:52:33.084Z,35.93
2018-08-03T15:55:01.134Z,35.88
2018-08-03T15:57:29.164Z,35.96
2018-08-03T15:59:57.202Z,35.92
2018-08-03T16:02:25.249Z,35.89
2018-08-03T16:04:53.430Z,35.87
2018-08-03T16:07:21.576Z,35.85
2018-08-03T16:09:49.616Z,35.92
2018-08-03T16:12:17.777Z,35.89
2018-08-03T16:14:46.001Z,35.77
2018-08-03T16:17:14.037Z,35.77
2018-08-03T16:19:42.063Z,35.72
2018-08-03T16:22:10.360Z,35.72
2018-08-03T16:24:38.520Z,35.55
2018-08-03T16:27:06.553Z,35.48
2018-08-03T16:29:34.758Z,35.50
2018-08-03T16:32:02.838Z,35.49
2018-08-03T16:34:30.869Z,35.45
2018-08-03T16:36:58.897Z,35.35
2018-08-03T16:39:26.921Z,35.29
2018-08-03T16:41:55.949Z,35.21
2018-08-03T16:44:23.979Z,35.09
2018-08-03T16:46:52.008Z,34.96
2018-08-03T16:49:20.019Z,34.93
2018-08-03T16:51:48.053Z,34.81
2018-08-03T16:54:16.100Z,34.78
2018-08-03T16:56:44.133Z,34.72
2018-08-03T16:59:12.163Z,34.67
2018-08-03T17:01:40.202Z,34.62
2018-08-03T17:04:08.244Z,34.56
2018-08-03T17:06:36.273Z,34.46
2018-08-03T17:09:07.510Z,34.40
2018-08-03T17:11:35.549Z,34.40
2018-08-03T17:14:03.593Z,34.29
2018-08-03T17:16:32.217Z,34.23
2018-08-03T17:19:00.255Z,34.28
2018-08-03T17:21:28.288Z,34.23
2018-08-03T17:23:56.328Z,34.19
2018-08-03T17:26:24.369Z,34.15
2018-08-03T17:28:52.407Z,34.12
2018-08-03T17:31:20.440Z,34.03
2018-08-03T17:33:48.480Z,33.98
2018-08-03T17:36:16.522Z,33.96
2018-08-03T17:38:44.545Z,33.87
2018-08-03T17:41:12.585Z,33.79
2018-08-03T17:43:40.710Z,33.70
2018-08-03T17:46:08.753Z,33.64
2018-08-03T17:48:36.805Z,33.58
2018-08-03T17:51:04.840Z,33.51
2018-08-03T17:53:32.869Z,33.41
2018-08-03T17:56:00.901Z,33.37
2018-08-03T17:58:28.949Z,33.39
2018-08-03T18:00:56.989Z,33.36
2018-08-03T18:03:25.355Z,33.30
2018-08-03T18:05:53.357Z,33.23
2018-08-03T18:08:21.393Z,33.12
2018-08-03T18:10:49.416Z,33.07
2018-08-03T18:13:17.460Z,33.02
2018-08-03T18:15:45.494Z,33.03
2018-08-03T18:18:13.520Z,33.01
2018-08-03T18:20:41.558Z,33.00
2018-08-03T18:23:09.585Z,32.96
2018-08-03T18:25:37.610Z,32.86
2018-08-03T18:28:05.652Z,32.77
2018-08-03T18:30:33.690Z,32.66
2018-08-03T18:33:01.731Z,32.56
2018-08-03T18:35:29.761Z,32.52
2018-08-03T18:37:57.812Z,32.45
2018-08-03T18:40:25.853Z,32.37
2018-08-03T18:42:53.890Z,32.33
2018-08-03T18:45:21.931Z,32.21
2018-08-03T18:47:49.972Z,32.16
2018-08-03T18:50:18.028Z,32.12
2018-08-03T18:52:46.071Z,32.04
2018-08-03T18:55:14.109Z,31.91
2018-08-03T18:57:42.125Z,31.84
2018-08-03T19:00:10.152Z,31.71
2018-08-03T19:02:38.184Z,31.62
2018-08-03T19:05:06.649Z,31.53
2018-08-03T19:07:34.695Z,31.49
2018-08-03T19:10:02.802Z,31.40
2018-08-03T19:12:30.743Z,31.29
2018-08-03T19:14:58.767Z,31.21
2018-08-03T19:17:26.784Z,31.13
2018-08-03T19:19:54.806Z,31.05
2018-08-03T19:22:22.857Z,30.95
2018-08-03T19:24:50.902Z,30.91
2018-08-03T19:27:18.949Z,30.79
2018-08-03T19:29:46.994Z,30.71
2018-08-03T19:32:15.039Z,30.59
2018-08-03T19:34:43.068Z,30.60
2018-08-03T19:37:11.115Z,30.59
2018-08-03T19:39:39.314Z,30.56
2018-08-03T19:42:07.363Z,30.54
2018-08-03T19:44:35.378Z,30.48
2018-08-03T19:47:03.463Z,30.41
2018-08-03T19:49:31.481Z,30.30
2018-08-03T19:51:59.528Z,30.23
2018-08-03T19:54:27.589Z,30.11
2018-08-03T19:56:55.616Z,30.08
2018-08-03T19:59:23.745Z,29.99
2018-08-03T20:01:51.704Z,29.90
2018-08-03T20:04:19.763Z,29.86
2018-08-03T20:06:47.824Z,29.82
2018-08-03T20:09:15.817Z,29.78
2018-08-03T20:11:43.833Z,29.70
2018-08-03T20:14:11.963Z,29.61
2018-08-03T20:16:39.993Z,29.55
2018-08-03T20:19:08.017Z,29.52
2018-08-03T20:21:36.049Z,29.46
2018-08-03T20:24:04.965Z,29.46
2018-08-03T20:26:33.020Z,29.43
2018-08-03T20:29:01.060Z,29.35
2018-08-03T20:31:29.106Z,29.26
2018-08-03T20:33:57.172Z,29.18
2018-08-03T20:36:25.230Z,29.10
2018-08-03T20:38:53.972Z,29.04
2018-08-03T20:41:22.019Z,28.98
2018-08-03T20:43:50.059Z,28.96
2018-08-03T20:46:18.081Z,28.92
2018-08-03T20:48:46.102Z,28.85
2018-08-03T20:51:14.148Z,28.82
2018-08-03T20:53:42.178Z,28.79
2018-08-03T20:56:10.204Z,28.71
2018-08-03T20:58:38.372Z,28.67
2018-08-03T21:01:06.565Z,28.63
2018-08-03T21:03:34.633Z,28.58
2018-08-03T21:06:02.826Z,28.52
2018-08-03T21:08:30.865Z,28.51
2018-08-03T21:10:58.882Z,28.50
2018-08-03T21:13:26.966Z,28.45
2018-08-03T21:15:55.000Z,28.42
2018-08-03T21:18:23.029Z,28.39
2018-08-03T21:20:51.065Z,28.35
2018-08-03T21:23:19.239Z,28.30
2018-08-03T21:25:47.284Z,28.26
2018-08-03T21:28:15.309Z,28.21
2018-08-03T21:30:43.569Z,28.16
2018-08-03T21:33:11.613Z,28.12
2018-08-03T21:35:39.779Z,28.04
2018-08-03T21:38:07.828Z,27.98
2018-08-03T21:40:35.867Z,27.94
2018-08-03T21:43:04.568Z,27.86
2018-08-03T21:45:33.204Z,27.78
2018-08-03T21:48:01.246Z,27.72
2018-08-03T21:50:29.291Z,27.67
2018-08-03T21:52:57.443Z,27.59
2018-08-03T21:55:25.496Z,27.53
2018-08-03T21:57:53.545Z,27.51
2018-08-03T22:00:22.887Z,27.45
2018-08-03T22:02:50.957Z,27.38
2018-08-03T22:05:18.999Z,27.32
2018-08-03T22:07:47.460Z,27.29
2018-08-03T22:10:15.488Z,27.22
2018-08-03T22:12:43.717Z,27.13
2018-08-03T22:15:11.765Z,27.02
2018-08-03T22:17:39.809Z,26.96
2018-08-03T22:20:08.030Z,26.88
2018-08-03T22:22:36.304Z,26.78
2018-08-03T22:25:04.997Z,26.78
2018-08-03T22:27:33.044Z,26.74
2018-08-03T22:30:01.074Z,26.64
2018-08-03T22:32:29.183Z,26.58
2018-08-03T22:34:57.156Z,26.47
2018-08-03T22:37:25.192Z,26.40
2018-08-03T22:39:53.275Z,26.40
2018-08-03T22:42:21.331Z,26.41
2018-08-03T22:44:49.352Z,26.38
2018-08-03T22:47:17.388Z,26.29
2018-08-03T22:49:45.457Z,26.23
2018-08-03T22:52:13.488Z,26.22
2018-08-03T22:54:41.536Z,26.21
2018-08-03T22:57:09.564Z,26.13
2018-08-03T22:59:38.060Z,26.03
2018-08-03T23:02:07.897Z,25.93
2018-08-03T23:04:36.483Z,25.85
2018-08-03T23:07:04.972Z,25.75
2018-08-03T23:09:33.018Z,25.67
2018-08-03T23:12:01.292Z,25.60
2018-08-03T23:14:29.340Z,25.44
2018-08-03T23:16:57.380Z,25.36
2018-08-03T23:19:25.489Z,25.33
2018-08-03T23:21:53.524Z,25.33
2018-08-03T23:24:21.564Z,25.36
2018-08-03T23:26:49.607Z,25.29
2018-08-03T23:29:17.635Z,25.31
2018-08-03T23:31:46.109Z,25.33
2018-08-03T23:34:14.182Z,25.26
2018-08-03T23:36:42.273Z,25.28
2018-08-03T23:39:10.448Z,25.30
2018-08-03T23:41:38.614Z,25.30
2018-08-03T23:44:06.637Z,25.27
2018-08-03T23:46:34.661Z,25.28
2018-08-03T23:49:02.770Z,25.24
2018-08-03T23:51:30.812Z,25.20
2018-08-03T23:53:58.846Z,25.20
2018-08-03T23:56:26.875Z,25.18
2018-08-03T23:59:01.473Z,25.15
